Detall de PIREP

Printer-friendly versionPDF version

[2015/08/25 11:27:00]
Flight IATA:CT3232
Pilot Number:016
Company ICAO:CAT
Aircraft Type:B763/F
PAX:135
Departing Airport: LEPA
Destination Airport: LEMD
Alternate Airport:LEBL
Online: VATSIM
Route:TURIA UN733 PRADO
Flight Level:F290
No Slew and time accel
No pause
Crash detect
Detect pilot in Cockpit between each 30 and 45 minutes
11:27 Zero fuel Weight: 249990 Lbs, Fuel Weight: 33556 Lbs
11:27 VATSIM:LEPA 242300Z 05002KT CAVOK 22/18 Q1016 NOSIG
11:27 VATSIM:LEMD 242300Z VRB02KT CAVOK 18/05 Q1019 NOSIG
11:28 Parking Brakes off
11:34 Take-off
11:34 Take off Weight: 281960 Lbs
11:34 Wind: 052º @ 002 Knots Heading: 238º
11:34 POS N39º 33´ 19´´ E002º 43´ 41´´
11:34 Gear Up: 179 Knots
11:34 Flaps:2 at 179 Knots
11:35 Flaps:1 at 200 Knots
11:36 Flaps:0 at 236 Knots
11:42 TOC
11:42 Fuel Weight: 27261 Lb
11:49 Wind:209º@004 Knots Heading: 266º Ground Speed: 471 Knots Altitude 29078 ft
12:03 TOD
12:03 Fuel Weight: 23567 Lb
12:04 Wind:093º@017 Knots Heading: 300º Ground Speed: 462 Knots Altitude 28674 ft
12:14 Flaps:1 at 241 Knots
12:18 Flaps:2 at 227 Knots
12:19 Wind:008º@012 Knots Heading: 323º Ground Speed: 262 Knots Altitude 10134 ft
12:19 Gear Down: 230 Knots
12:19 Flaps:3 at 216 Knots
12:21 Flaps:4 at 176 Knots
12:21 Flaps:5 at 176 Knots
12:22 Flaps:4 at 179 Knots
12:22 Flaps:5 at 185 Knots
12:22 TouchDown:Rate -358 ft/min Speed: 172 Knots
12:22 VATSIM:LEMD 250000Z VRB01KT CAVOK 18/05 Q1019 NOSIG
12:22 Land
12:22 Wind:018º@006 Knots
12:22 Heading: 320º
12:22 Flight Duration: 00:48
12:22 Landing Weight: 272034 Lbs
12:22 POS N40º 29´ 21´´ W003º 33´ 08´´
12:24 Parking brakes on
12:24 Block to Block Duration: 00:56
12:24 Final Fuel: 21836 Lbls
12:24 Spent Fuel: 11719 Lbls
12:24 Flight Length: 313 NM
12:24 TODLand Length: 99 NM

Exportar CSV

Powered by Drupal - Modified by Danger4k